createdAt,value
2022-09-26T00:01:25.972Z,3.8
2022-09-26T00:03:27.899Z,2.8
2022-09-26T00:05:32.990Z,7
2022-09-26T00:07:35.030Z,10.4
2022-09-26T00:09:37.072Z,22.7
2022-09-26T00:11:39.110Z,6.1
2022-09-26T00:13:41.153Z,10
2022-09-26T00:15:43.206Z,5.2
2022-09-26T00:17:45.264Z,12.3
2022-09-26T00:19:50.312Z,8.6
2022-09-26T00:21:52.357Z,5.2
2022-09-26T00:23:54.400Z,5.9
2022-09-26T00:25:56.447Z,27.1
2022-09-26T00:27:58.525Z,6.2
2022-09-26T00:30:00.528Z,8.5
2022-09-26T00:32:02.566Z,5.2
2022-09-26T00:36:09.701Z,12.5
2022-09-26T00:38:11.759Z,11.3
2022-09-26T00:40:13.858Z,7.5
2022-09-26T00:42:15.821Z,9.5
2022-09-26T00:44:17.849Z,8.5
2022-09-26T00:48:24.999Z,8.8
2022-09-26T00:50:27.028Z,9.8
2022-09-26T00:52:29.078Z,5.2
2022-09-26T00:54:51.983Z,5.2
2022-09-26T00:56:54.007Z,8
2022-09-26T00:58:56.028Z,10.4
2022-09-26T01:01:01.306Z,14.1
2022-09-26T01:03:03.197Z,9.9
2022-09-26T01:05:05.225Z,10.4
2022-09-26T01:07:07.268Z,7.8
2022-09-26T01:11:16.159Z,14.4
2022-09-26T01:13:13.395Z,8.5
2022-09-26T01:15:18.474Z,21.6
2022-09-26T01:17:20.524Z,6.2
2022-09-26T01:19:22.553Z,16.9
2022-09-26T01:21:24.611Z,14.3
2022-09-26T01:23:26.629Z,15.2
2022-09-26T01:25:28.689Z,10.4
2022-09-26T01:27:30.741Z,13.2
2022-09-26T01:31:37.877Z,8.6
2022-09-26T01:35:41.943Z,11.6
2022-09-26T01:43:53.320Z,11
2022-09-26T01:48:59.970Z,14.2
2022-09-26T01:51:02.000Z,6.8
2022-09-26T01:53:04.035Z,5.9
2022-09-26T01:55:06.065Z,17.3
2022-09-26T01:57:11.193Z,5.3
2022-09-26T01:59:13.249Z,11.1
2022-09-26T02:01:15.336Z,5.9
2022-09-26T02:03:17.271Z,13.1
2022-09-26T02:05:19.313Z,8.2
2022-09-26T02:07:21.481Z,10.8
2022-09-26T02:09:23.397Z,8.4
2022-09-26T02:11:28.474Z,5.7
2022-09-26T02:13:30.519Z,19.9
2022-09-26T02:15:32.551Z,11.6
2022-09-26T02:17:34.735Z,8.8
2022-09-26T02:19:36.613Z,13.1
2022-09-26T02:21:38.678Z,7.2
2022-09-26T02:23:40.707Z,13.9
2022-09-26T02:25:45.805Z,6.5
2022-09-26T02:29:49.852Z,8.5
2022-09-26T02:31:51.987Z,12
2022-09-26T02:33:53.953Z,21
2022-09-26T02:35:55.993Z,13.6
2022-09-26T02:37:58.003Z,17.5
2022-09-26T02:40:03.104Z,10.7
2022-09-26T02:42:05.142Z,11.7
2022-09-26T02:44:07.176Z,16.5
2022-09-26T02:45:09.720Z,16.1
2022-09-26T02:47:11.762Z,12.7
2022-09-26T02:49:13.927Z,10.5
2022-09-26T02:51:15.824Z,15.1
2022-09-26T02:53:21.106Z,11.4
2022-09-26T02:55:22.955Z,13.2
2022-09-26T02:57:24.988Z,16.9
2022-09-26T02:59:27.022Z,13.3
2022-09-26T03:01:29.161Z,11.3
2022-09-26T03:03:31.151Z,20.6
2022-09-26T03:05:33.129Z,26.9
2022-09-26T03:07:38.218Z,13.3
2022-09-26T03:09:40.288Z,14.6
2022-09-26T03:11:42.335Z,9.9
2022-09-26T03:13:44.365Z,14.1
2022-09-26T03:15:46.393Z,12.7
2022-09-26T03:17:48.450Z,14
2022-09-26T03:19:50.473Z,13.6
2022-09-26T03:21:55.583Z,29.5
2022-09-26T03:23:57.750Z,15.1
2022-09-26T03:25:59.666Z,10.6
2022-09-26T03:28:01.703Z,11.8
2022-09-26T03:30:03.757Z,10.4
2022-09-26T03:32:05.914Z,16.3
2022-09-26T03:36:12.929Z,31.5
2022-09-26T03:38:14.983Z,18.2
2022-09-26T03:43:21.591Z,29.3
2022-09-26T03:45:23.694Z,16.9
2022-09-26T03:47:25.676Z,17.1
2022-09-26T03:49:30.775Z,19.3
2022-09-26T03:51:32.838Z,23.6
2022-09-26T03:53:34.872Z,25.1
2022-09-26T03:55:36.913Z,14.7
2022-09-26T03:57:38.940Z,17.1
2022-09-26T03:59:40.991Z,17.4
2022-09-26T04:01:43.068Z,19.1
2022-09-26T04:07:52.209Z,15.7
2022-09-26T04:09:54.263Z,19.7
2022-09-26T04:11:56.276Z,11
2022-09-26T04:16:00.382Z,15.9
2022-09-26T04:18:05.436Z,11.9
2022-09-26T04:20:07.512Z,19.8
2022-09-26T04:22:09.542Z,16
2022-09-26T04:24:11.574Z,12.2
2022-09-26T04:26:15.630Z,12.7
2022-09-26T04:28:15.652Z,13.1
2022-09-26T04:30:17.711Z,26.1
2022-09-26T04:32:22.784Z,16.4
2022-09-26T04:34:27.218Z,7.4
2022-09-26T04:40:51.722Z,12
2022-09-26T04:42:53.713Z,9.4
2022-09-26T04:44:58.811Z,22.9
2022-09-26T04:47:00.859Z,12.6
2022-09-26T04:49:02.883Z,26.1
2022-09-26T04:51:04.922Z,10.2
2022-09-26T04:53:06.948Z,14.9
2022-09-26T04:55:09.025Z,12.3
2022-09-26T04:57:13.828Z,10.3
2022-09-26T04:59:16.231Z,21
2022-09-26T05:01:18.265Z,10.1
2022-09-26T05:03:20.209Z,13.7
2022-09-26T05:05:22.236Z,17.2
2022-09-26T05:07:24.264Z,10.5
2022-09-26T05:13:33.471Z,7.7
2022-09-26T05:15:35.482Z,13.2
2022-09-26T05:17:37.533Z,19.9
2022-09-26T05:19:39.554Z,14.9
2022-09-26T05:21:41.584Z,26.5
2022-09-26T05:23:44.997Z,9.7
2022-09-26T05:25:47.202Z,9.1
2022-09-26T05:27:52.266Z,25.5
2022-09-26T05:29:54.282Z,17.7
2022-09-26T05:31:56.398Z,11.4
2022-09-26T05:32:58.882Z,9.5
2022-09-26T05:35:00.922Z,7.5
2022-09-26T05:37:02.977Z,10.5
2022-09-26T05:39:04.998Z,4.7
2022-09-26T05:41:10.112Z,7.5
2022-09-26T05:43:12.148Z,18.7
2022-09-26T05:45:14.191Z,7.2
2022-09-26T05:47:16.390Z,5.8
2022-09-26T05:49:18.258Z,19.9
2022-09-26T05:51:20.310Z,8.8
2022-09-26T05:53:22.378Z,10.6
2022-09-26T05:55:27.435Z,11.7
2022-09-26T05:57:29.468Z,5.5
2022-09-26T05:59:31.484Z,5.3
2022-09-26T06:01:33.618Z,7.8
2022-09-26T06:03:35.608Z,9.5
2022-09-26T06:05:37.615Z,7.5
2022-09-26T06:07:39.644Z,15.7
2022-09-26T06:09:44.733Z,11.2
2022-09-26T06:11:46.755Z,18
2022-09-26T06:15:50.845Z,8.3
2022-09-26T06:17:52.886Z,8.7
2022-09-26T06:19:54.946Z,12.9
2022-09-26T06:21:56.965Z,10
2022-09-26T06:24:02.050Z,16.9
2022-09-26T06:26:04.085Z,11.8
2022-09-26T06:28:06.125Z,15.5
2022-09-26T06:31:10.761Z,14.6
2022-09-26T06:33:12.761Z,9
2022-09-26T06:35:14.788Z,6.2
2022-09-26T06:39:21.898Z,16.9
2022-09-26T06:49:32.087Z,7.1
2022-09-26T06:55:41.287Z,11.3
2022-09-26T06:57:43.334Z,4.5
2022-09-26T06:59:45.374Z,6.1
2022-09-26T07:01:47.627Z,10.7
2022-09-26T07:05:54.518Z,7.7
2022-09-26T07:07:56.586Z,9.5
2022-09-26T07:09:58.632Z,6.9
2022-09-26T07:12:14.634Z,6.2
2022-09-26T07:14:02.707Z,11.4
2022-09-26T07:16:04.793Z,7.3
2022-09-26T07:18:06.792Z,13.8
2022-09-26T07:20:11.892Z,22.4
2022-09-26T07:22:13.927Z,6.5
2022-09-26T07:24:15.949Z,7.4
2022-09-26T07:27:20.548Z,6.2
2022-09-26T07:29:22.602Z,6.5
2022-09-26T07:35:31.758Z,8
2022-09-26T07:37:33.780Z,5.1
2022-09-26T07:39:35.846Z,20.1
2022-09-26T07:44:30.289Z,9.7
2022-09-26T07:45:41.942Z,8
2022-09-26T07:47:47.067Z,9.5
2022-09-26T07:49:49.094Z,12.4
2022-09-26T07:51:51.168Z,16.1
2022-09-26T07:53:53.172Z,6.3
2022-09-26T07:55:55.212Z,7.2
2022-09-26T07:57:57.238Z,11.7
2022-09-26T07:59:59.275Z,7.9
2022-09-26T08:02:04.541Z,8.1
2022-09-26T08:04:06.647Z,9.3
2022-09-26T08:06:08.486Z,9.5
2022-09-26T08:08:10.520Z,6
2022-09-26T08:10:12.535Z,6.2
2022-09-26T08:12:14.583Z,11.1
2022-09-26T08:14:16.626Z,5.5
2022-09-26T08:16:21.861Z,3.5
2022-09-26T08:18:23.753Z,5.7
2022-09-26T08:20:31.327Z,13.8
2022-09-26T08:22:48.444Z,7.5
2022-09-26T08:24:50.473Z,9.1
2022-09-26T08:26:52.534Z,9.1
2022-09-26T08:28:57.647Z,6.6
2022-09-26T08:30:59.731Z,11.3
2022-09-26T08:33:01.727Z,16.5
2022-09-26T08:35:03.748Z,16.2
2022-09-26T08:37:05.804Z,7.7
2022-09-26T08:39:07.853Z,3.9
2022-09-26T08:41:09.873Z,15.2
2022-09-26T08:43:14.983Z,9.6
2022-09-26T08:45:17.026Z,7.6
2022-09-26T08:49:21.116Z,6.3
2022-09-26T08:51:28.303Z,4.9
2022-09-26T08:53:25.186Z,6.4
2022-09-26T08:57:32.327Z,7.8
2022-09-26T08:59:34.364Z,5.8
2022-09-26T09:05:40.504Z,13.9
2022-09-26T09:07:42.557Z,5.5
2022-09-26T09:09:44.589Z,4.7
2022-09-26T09:13:51.707Z,5.6
2022-09-26T09:15:53.791Z,3.9
2022-09-26T09:16:56.316Z,13.4
2022-09-26T09:18:58.353Z,6.6
2022-09-26T09:21:00.400Z,10.1
2022-09-26T09:23:02.454Z,10.9
2022-09-26T09:25:07.555Z,7.1
2022-09-26T09:29:11.626Z,5.4
2022-09-26T09:31:13.724Z,13.5
2022-09-26T09:33:15.724Z,7.9
2022-09-26T09:35:17.768Z,6.5
2022-09-26T09:37:19.792Z,4.9
2022-09-26T09:39:24.889Z,9.3
2022-09-26T09:41:26.947Z,10.8
2022-09-26T09:43:28.989Z,10.4
2022-09-26T09:45:31.033Z,8
2022-09-26T09:47:33.364Z,24
2022-09-26T09:49:35.122Z,12.2
2022-09-26T09:51:39.240Z,7.1
2022-09-26T09:53:42.266Z,16.2
2022-09-26T09:55:44.294Z,8.4
2022-09-26T09:57:46.387Z,13.4
2022-09-26T09:59:48.419Z,16.1
2022-09-26T10:01:50.459Z,15.8
2022-09-26T10:03:52.492Z,11.3
2022-09-26T10:05:54.532Z,12.2
2022-09-26T10:07:59.643Z,11
2022-09-26T10:10:01.743Z,14.3
2022-09-26T10:12:03.750Z,6.5
2022-09-26T10:15:08.305Z,11
2022-09-26T10:19:12.394Z,9.7
2022-09-26T10:21:17.499Z,6.3
2022-09-26T10:23:19.531Z,7.4
2022-09-26T10:25:21.582Z,10.7
2022-09-26T10:27:23.653Z,9.3
2022-09-26T10:29:25.664Z,7.9
2022-09-26T10:35:34.834Z,7.7
2022-09-26T10:41:40.978Z,11.1
2022-09-26T10:43:43.052Z,15.7
2022-09-26T10:45:45.090Z,5.9
2022-09-26T10:47:47.124Z,11.9
2022-09-26T10:49:52.222Z,5.9
2022-09-26T10:51:54.266Z,7.3
2022-09-26T10:53:56.303Z,7.5
2022-09-26T10:55:58.343Z,6.6
2022-09-26T10:58:00.396Z,11.5
2022-09-26T11:00:02.440Z,5
2022-09-26T11:02:04.491Z,3.6
2022-09-26T11:06:11.609Z,9
2022-09-26T11:08:13.660Z,9
2022-09-26T11:09:16.202Z,9
2022-09-26T11:15:22.321Z,8.1
2022-09-26T11:17:28.954Z,8.8
2022-09-26T11:19:30.964Z,7.5
2022-09-26T11:21:33.002Z,4.5
2022-09-26T11:23:35.036Z,5.5
2022-09-26T11:25:37.074Z,6.2
2022-09-26T11:27:39.111Z,17.2
2022-09-26T11:29:41.159Z,5.1
2022-09-26T11:31:46.256Z,9.5
2022-09-26T11:33:48.296Z,9.7
2022-09-26T11:35:50.355Z,5.5
2022-09-26T11:37:52.385Z,10.2
2022-09-26T11:39:54.435Z,9.8
2022-09-26T11:41:56.472Z,2
2022-09-26T11:43:58.505Z,3.7
2022-09-26T11:46:03.769Z,4.2
2022-09-26T11:48:05.642Z,3.5
2022-09-26T11:50:07.695Z,6.3
2022-09-26T11:52:09.745Z,2.9
2022-09-26T11:54:11.866Z,7.8
2022-09-26T11:58:15.856Z,9
2022-09-26T12:00:20.947Z,5.5
2022-09-26T12:02:23.127Z,7.6
2022-09-26T12:04:25.068Z,9.3
2022-09-26T12:06:47.893Z,12.8
2022-09-26T12:08:49.936Z,5.4
2022-09-26T12:10:51.981Z,3.9
2022-09-26T12:12:57.072Z,4.2
2022-09-26T12:14:59.097Z,3.3
2022-09-26T12:17:01.142Z,6
2022-09-26T12:19:03.192Z,2.2
2022-09-26T12:21:05.223Z,5.1
2022-09-26T12:23:07.270Z,5.4
2022-09-26T12:25:09.310Z,6.6
2022-09-26T12:27:14.411Z,4.1
2022-09-26T12:29:16.446Z,6.3
2022-09-26T12:33:20.507Z,3.2
2022-09-26T12:35:22.683Z,3.2
2022-09-26T12:37:24.594Z,12.5
2022-09-26T12:39:26.629Z,5.4
2022-09-26T12:41:31.727Z,6.5
2022-09-26T12:43:33.751Z,2.3
2022-09-26T12:45:35.944Z,7
2022-09-26T12:47:37.855Z,23.8
2022-09-26T12:51:41.910Z,2.9
2022-09-26T12:55:49.040Z,2.9
2022-09-26T12:57:51.072Z,3.5
2022-09-26T12:59:53.116Z,2.7
2022-09-26T13:00:55.652Z,3.5
2022-09-26T13:02:57.805Z,3.5
2022-09-26T13:04:59.742Z,2.2
2022-09-26T13:07:18.490Z,5.3
2022-09-26T13:09:06.933Z,4.6
2022-09-26T13:11:08.919Z,2.8
2022-09-26T13:13:10.965Z,5.1
2022-09-26T13:15:12.992Z,3.6
2022-09-26T13:17:15.016Z,1.5
2022-09-26T13:19:17.055Z,3.1
2022-09-26T13:21:19.083Z,11
2022-09-26T13:23:24.183Z,6.1
2022-09-26T13:25:26.247Z,5.8
2022-09-26T13:27:28.269Z,3.8
2022-09-26T13:29:30.654Z,2.6
2022-09-26T13:31:32.794Z,3.9
2022-09-26T13:33:34.372Z,8.1
2022-09-26T13:35:36.410Z,3.6
2022-09-26T13:37:41.537Z,5
2022-09-26T13:39:43.525Z,3.2
2022-09-26T13:41:45.581Z,4
2022-09-26T13:45:49.634Z,3.2
2022-09-26T13:47:51.701Z,7.8
2022-09-26T13:49:53.743Z,5.8
2022-09-26T13:51:59.096Z,3.7
2022-09-26T13:54:00.855Z,2.4
2022-09-26T13:56:02.892Z,7.4
2022-09-26T13:57:05.436Z,5.6
2022-09-26T13:59:07.479Z,7.4
2022-09-26T14:01:09.647Z,5
2022-09-26T14:03:11.651Z,2.4
2022-09-26T14:09:20.718Z,1.6
2022-09-26T14:19:33.962Z,4.8
2022-09-26T14:21:35.979Z,1.6
2022-09-26T14:23:38.014Z,2.5
2022-09-26T14:25:41.069Z,1.5
2022-09-26T14:27:43.094Z,3.3
2022-09-26T14:31:47.172Z,3.2
2022-09-26T14:33:54.893Z,1.8
2022-09-26T14:35:54.308Z,2.1
2022-09-26T14:37:56.338Z,8.8
2022-09-26T14:39:58.375Z,2.9
2022-09-26T14:44:02.453Z,3.6
2022-09-26T14:46:04.598Z,2.6
2022-09-26T14:48:09.575Z,2.4
2022-09-26T14:50:11.613Z,4.7
2022-09-26T14:52:13.635Z,2.7
2022-09-26T14:53:16.199Z,3.8
2022-09-26T14:55:18.249Z,3.8
2022-09-26T14:57:21.052Z,2.3
2022-09-26T14:59:22.304Z,5.7
2022-09-26T15:01:27.474Z,3.8
2022-09-26T15:03:29.437Z,4.4
2022-09-26T15:05:31.472Z,5.7
2022-09-26T15:07:33.509Z,3.6
2022-09-26T15:09:35.539Z,11.7
2022-09-26T15:11:37.571Z,4.2
2022-09-26T15:13:39.587Z,6.3
2022-09-26T15:15:44.766Z,7.9
2022-09-26T15:17:46.724Z,6.3
2022-09-26T15:25:54.899Z,5.8
2022-09-26T15:27:56.927Z,4.4
2022-09-26T15:30:02.071Z,5.1
2022-09-26T15:32:04.049Z,8
2022-09-26T15:34:06.124Z,9.3
2022-09-26T15:36:08.140Z,6.5
2022-09-26T15:38:10.182Z,8.4
2022-09-26T15:40:12.288Z,6.1
2022-09-26T15:42:14.243Z,9.7
2022-09-26T15:44:19.341Z,6.4
2022-09-26T15:48:23.405Z,5.3
2022-09-26T15:50:46.314Z,7.4
2022-09-26T15:52:48.342Z,9.2
2022-09-26T15:54:50.402Z,6.2
2022-09-26T15:56:55.467Z,8.3
2022-09-26T15:58:57.541Z,12.8
2022-09-26T16:00:59.562Z,9.2
2022-09-26T16:03:01.655Z,7.2
2022-09-26T16:05:03.633Z,7.9
2022-09-26T16:07:05.669Z,13.4
2022-09-26T16:11:12.794Z,10.4
2022-09-26T16:13:14.834Z,11
2022-09-26T16:15:16.881Z,8
2022-09-26T16:17:18.905Z,9.2
2022-09-26T16:21:22.959Z,14.4
2022-09-26T16:23:25.011Z,9
2022-09-26T16:25:30.115Z,8.9
2022-09-26T16:27:32.140Z,9.7
2022-09-26T16:29:34.169Z,11.2
2022-09-26T16:31:36.245Z,14.3
2022-09-26T16:33:38.607Z,11.4
2022-09-26T16:35:40.643Z,11.8
2022-09-26T16:37:42.690Z,19.4
2022-09-26T16:39:47.796Z,12.2
2022-09-26T16:42:01.207Z,10.5
2022-09-26T16:43:51.843Z,17.7
2022-09-26T16:44:54.422Z,15.1
2022-09-26T16:46:56.452Z,19
2022-09-26T16:48:58.466Z,20.6
2022-09-26T16:51:00.506Z,22.6
2022-09-26T16:53:05.598Z,24.5
2022-09-26T16:57:09.678Z,19.4
2022-09-26T16:59:11.715Z,14.9
2022-09-26T17:01:13.861Z,18.6
2022-09-26T17:03:15.818Z,14.8
2022-09-26T17:05:17.805Z,17.5
2022-09-26T17:07:24.422Z,18.2
2022-09-26T17:17:34.578Z,24.2
2022-09-26T17:23:43.717Z,24
2022-09-26T17:25:45.754Z,17.5
2022-09-26T17:27:47.787Z,20.9
2022-09-26T17:29:49.831Z,23.6
2022-09-26T17:31:51.863Z,18.9
2022-09-26T17:33:53.917Z,28.9
2022-09-26T17:35:59.000Z,25.5
2022-09-26T17:38:01.040Z,27.3
2022-09-26T17:40:03.119Z,23.4
2022-09-26T17:41:05.733Z,22.9
2022-09-26T17:43:07.654Z,27.9
2022-09-26T17:45:09.700Z,24.8
2022-09-26T17:47:11.735Z,23.6
2022-09-26T17:49:16.979Z,21.6
2022-09-26T17:51:18.856Z,27.3
2022-09-26T17:53:20.902Z,28.6
2022-09-26T17:55:22.930Z,26.3
2022-09-26T17:57:24.940Z,36.2
2022-09-26T17:59:26.988Z,25.9
2022-09-26T18:01:29.070Z,19.9
2022-09-26T18:03:34.127Z,35.3
2022-09-26T18:05:36.159Z,22.3
2022-09-26T18:07:38.186Z,20.7
2022-09-26T18:09:40.234Z,37.8
2022-09-26T18:11:42.272Z,19.1
2022-09-26T18:13:44.296Z,32.8
2022-09-26T18:15:46.367Z,27.4
2022-09-26T18:17:51.436Z,30.1
2022-09-26T18:19:53.456Z,32.2
2022-09-26T18:21:55.501Z,17.3
2022-09-26T18:23:57.547Z,29
2022-09-26T18:25:59.585Z,27.7
2022-09-26T18:28:01.612Z,28.4
2022-09-26T18:30:03.722Z,28.1
2022-09-26T18:32:08.752Z,45.3
2022-09-26T18:34:10.775Z,27
2022-09-26T18:36:12.824Z,20.9
2022-09-26T18:37:15.375Z,29.4
2022-09-26T18:39:17.467Z,31.4
2022-09-26T18:41:19.440Z,37.3
2022-09-26T18:43:21.485Z,32.7
2022-09-26T18:45:26.570Z,25.8
2022-09-26T18:47:28.608Z,32.3
2022-09-26T18:49:30.640Z,34.8
2022-09-26T18:51:32.680Z,28.1
2022-09-26T18:53:34.707Z,35.3
2022-09-26T18:55:36.760Z,31.7
2022-09-26T18:57:38.782Z,41
2022-09-26T18:59:43.896Z,45.9
2022-09-26T19:01:46.030Z,43.6
2022-09-26T19:05:49.977Z,39.8
2022-09-26T19:07:52.016Z,31.2
2022-09-26T19:09:54.067Z,41.8
2022-09-26T19:11:56.114Z,43.4
2022-09-26T19:16:03.281Z,30
2022-09-26T19:18:05.279Z,32.3
2022-09-26T19:20:07.299Z,36.5
2022-09-26T19:22:09.348Z,48.2
2022-09-26T19:24:11.402Z,36.7
2022-09-26T19:26:13.417Z,47
2022-09-26T19:28:18.516Z,35.6
2022-09-26T19:30:20.560Z,40.7
2022-09-26T19:32:22.594Z,32
2022-09-26T19:34:45.470Z,34.6
2022-09-26T19:36:47.509Z,30.8
2022-09-26T19:40:54.696Z,40.8
2022-09-26T19:42:56.667Z,35.8
2022-09-26T19:44:58.697Z,49.9
2022-09-26T19:49:02.791Z,38.9
2022-09-26T19:51:04.845Z,36.7
2022-09-26T19:53:06.848Z,41.7
2022-09-26T19:55:11.936Z,32.7
2022-09-26T19:57:14.004Z,37.3
2022-09-26T19:59:16.029Z,38.8
2022-09-26T20:03:20.105Z,23.4
2022-09-26T20:05:22.258Z,37.2
2022-09-26T20:07:24.164Z,38.4
2022-09-26T20:09:30.095Z,23
2022-09-26T20:11:32.124Z,35.7
2022-09-26T20:13:34.165Z,41.9
2022-09-26T20:15:36.335Z,42.6
2022-09-26T20:17:38.235Z,26.8
2022-09-26T20:19:40.251Z,31.3
2022-09-26T20:28:54.007Z,19.4
2022-09-26T20:30:56.236Z,18.5
2022-09-26T20:32:58.060Z,18
2022-09-26T20:35:00.137Z,11.5
2022-09-26T20:37:05.211Z,11
2022-09-26T20:39:07.311Z,12.9
2022-09-26T20:41:12.909Z,12.4
2022-09-26T20:43:11.334Z,24.9
2022-09-26T20:45:13.369Z,14.3
2022-09-26T20:47:15.396Z,15.4
2022-09-26T20:49:17.429Z,8.6
2022-09-26T20:51:22.543Z,18.1
2022-09-26T20:53:24.556Z,25.6
2022-09-26T20:55:26.601Z,15.8
2022-09-26T21:01:32.867Z,19
2022-09-26T21:03:34.728Z,19
2022-09-26T21:05:39.846Z,21.2
2022-09-26T21:07:41.882Z,6
2022-09-26T21:09:43.917Z,8.6
2022-09-26T21:11:45.948Z,12
2022-09-26T21:15:50.034Z,13.7
2022-09-26T21:19:57.157Z,20.9
2022-09-26T21:25:03.766Z,7.2
2022-09-26T21:27:05.819Z,12.3
2022-09-26T21:29:07.892Z,11.5
2022-09-26T21:31:10.161Z,13.6
2022-09-26T21:33:15.019Z,17.5
2022-09-26T21:35:17.038Z,4.8
2022-09-26T21:37:19.053Z,9.3
2022-09-26T21:39:21.092Z,10.8
2022-09-26T21:41:23.148Z,31.4
2022-09-26T21:43:25.155Z,24.8
2022-09-26T21:47:32.285Z,12
2022-09-26T21:49:34.319Z,17.3
2022-09-26T21:51:36.347Z,23.2
2022-09-26T21:53:38.388Z,17.5
2022-09-26T21:55:40.435Z,13.3
2022-09-26T21:57:42.470Z,9.3
2022-09-26T21:59:44.512Z,22.6
2022-09-26T22:01:49.660Z,18.1
2022-09-26T22:03:51.645Z,7.6
2022-09-26T22:05:53.675Z,24
2022-09-26T22:07:55.696Z,8.1
2022-09-26T22:09:57.740Z,16
2022-09-26T22:11:59.759Z,4.9
2022-09-26T22:14:01.851Z,14.3
2022-09-26T22:16:06.915Z,7.8
2022-09-26T22:18:08.942Z,9
2022-09-26T22:20:10.974Z,8.7
2022-09-26T22:21:13.522Z,13.6
2022-09-26T22:23:15.542Z,21.7
2022-09-26T22:33:28.763Z,16.3
2022-09-26T22:35:30.810Z,13.1
2022-09-26T22:37:32.848Z,6.9
2022-09-26T22:39:34.875Z,3.9
2022-09-26T22:41:36.900Z,16.7
2022-09-26T22:43:42.009Z,16.1
2022-09-26T22:45:44.087Z,19.3
2022-09-26T22:47:46.060Z,8.1
2022-09-26T22:49:48.094Z,13.6
2022-09-26T22:51:50.113Z,20.1
2022-09-26T22:53:52.352Z,4.1
2022-09-26T22:55:54.181Z,5.8
2022-09-26T22:57:59.286Z,15
2022-09-26T23:00:02.857Z,17.7
2022-09-26T23:02:04.918Z,19
2022-09-26T23:04:06.880Z,9.9
2022-09-26T23:06:08.915Z,5.8
2022-09-26T23:08:10.928Z,16.8
2022-09-26T23:10:12.973Z,22.5
2022-09-26T23:12:18.045Z,13.2
2022-09-26T23:16:22.171Z,10.6
2022-09-26T23:20:41.361Z,9.2
2022-09-26T23:22:43.376Z,17.2
2022-09-26T23:24:48.487Z,12.4
2022-09-26T23:26:50.508Z,11.1
2022-09-26T23:28:52.541Z,14.9
2022-09-26T23:30:54.642Z,10.7
2022-09-26T23:32:56.602Z,18.9
2022-09-26T23:34:58.633Z,16.3
2022-09-26T23:37:00.698Z,12.4
2022-09-26T23:39:05.763Z,11.7
2022-09-26T23:41:07.808Z,9.7
2022-09-26T23:43:09.888Z,16.9
2022-09-26T23:45:11.860Z,4.6
2022-09-26T23:47:13.892Z,5.2
2022-09-26T23:53:23.068Z,14.1
2022-09-26T23:55:25.109Z,18.7
2022-09-26T23:57:27.131Z,8
2022-09-26T23:59:29.174Z,25.5
